Portales, NM

3:49 PM MST on February 21, 2017 (GMT -0700)
ENMU | | Change Station
Active Advisory: Fire Weather Warning

Elev 4026 ft 34.18 °N, 103.35 °W | Updated 10 minutes ago

Clear
Clear
80.0 °F
Feels Like 78 °F
N
0.0
Wind Variable Wind from NW
Gusts 3.0 mph

Today
High -- | Low -- °F
--% Chance of Precip.
Yesterday
High -- | Low -- °F
Precip. -- in
Pressure 29.94 in
Visibility 10.0 miles
Clouds Clear
Heat Index 78 °F
Dew Point 27 °F
Humidity 14%
Rainfall 0.00 in
Snow Depth Not available.
6:31 AM 5:42 PM
Waning Crescent, 22% visible
METAR KCVS 212158Z AUTO 00000KT 10SM CLR 27/M06 A3006 RMK AO2 SLP137 T02671061 $
Pressure 29.94 in
Visibility 10.0 miles
Clouds Clear
Heat Index 78 °F
Dew Point 27 °F
Humidity 14%
Rainfall 0.00 in
Snow Depth Not available.
6:31 AM 5:42 PM
Waning Crescent, 22% visible
METAR KCVS 212158Z AUTO 00000KT 10SM CLR 27/M06 A3006 RMK AO2 SLP137 T02671061 $

Get Your Daily Forecast Email!

Thanks for signing up!

Be on the lookout for a verification email in your inbox.

You'll start receiving the daily forecast at 8 AM.

×

10-Day Weather Forecast

Almanac

Astronomy

Feb. 21, 2017 Rise Set
Actual Time
Civil Twilight
Nautical Twilight
Astronomical Twilight
Moon
Length of Visible Light
Length of Day
Tomorrow will be .
, % of the Moon is Illuminated

Today's Extremes

State Highs State Lows

Community

WunderPhotos

Upload Photos

1,962,540 photos uploaded!

WunderBlog® & News

Nearby

Air Quality

  Air Quality AQ Index Pollutant
Not available.

Snow Depth

Station Depth Elevation

Earthquake Activity

City Distance Mag. Time & Date
Minimum magnitude displayed is 2.5.

Coastal Water Temperatures

Place Temperature

Stations

Nearby Weather Stations

Station Location Temp. Windchill Dew Point Humidity Wind Precip. Elev Updated Type
                   

Watches & Warnings

Fire Weather Warning
Issued: 2:22 PM MST Feb. 21, 2017 – National Weather Service

... Red flag warning remains in effect from noon to 6 PM MST
Wednesday...
... Red flag warning in effect from noon to 7 PM MST Thursday...

The National Weather Service in Albuquerque has issued a red flag
warning... which is in effect from noon to 7 PM MST Thursday. The
Fire Weather Watch is no longer in effect.

* Area and timing... northeast Highlands and eastern plains both
Wednesday and Thursday afternoons as well as into early Thursday
evening.

* 20 foot winds... west 20 to 30 mph with gusts to 55 mph
Wednesday. West 30 to 40 mph with gusts to 60 mph Thursday.

* Relative humidity... minimum values of 5 to 12 percent. Lowest
values across the northeast on Wednesday and east central and
southeast plains on Thursday.

* Impacts... any fires that develop will likely spread rapidly.
Outdoor burning is not recommended.

Precautionary/preparedness actions...

Please advise the appropriate officials or fire crews in the
field of this red flag warning.